sensor_id;sensor_type;location;lat;lon;timestamp;P1;durP1;ratioP1;P2;durP2;ratioP2
37655;SDS011;23498;50.958;3.124;2023-02-03T00:00:51;11.82;;;2.25;;
37655;SDS011;23498;50.958;3.124;2023-02-03T00:03:17;11.00;;;2.83;;
37655;SDS011;23498;50.958;3.124;2023-02-03T00:05:43;14.65;;;2.70;;
37655;SDS011;23498;50.958;3.124;2023-02-03T00:08:09;10.30;;;2.83;;
37655;SDS011;23498;50.958;3.124;2023-02-03T00:10:36;7.05;;;2.67;;
37655;SDS011;23498;50.958;3.124;2023-02-03T00:13:03;8.07;;;2.47;;
37655;SDS011;23498;50.958;3.124;2023-02-03T00:15:29;12.93;;;3.60;;
37655;SDS011;23498;50.958;3.124;2023-02-03T00:17:55;12.70;;;2.88;;
37655;SDS011;23498;50.958;3.124;2023-02-03T00:20:21;9.25;;;2.05;;
37655;SDS011;23498;50.958;3.124;2023-02-03T00:22:47;10.93;;;2.45;;
37655;SDS011;23498;50.958;3.124;2023-02-03T00:25:13;9.57;;;2.38;;
37655;SDS011;23498;50.958;3.124;2023-02-03T00:27:39;11.00;;;2.63;;
37655;SDS011;23498;50.958;3.124;2023-02-03T00:30:05;14.75;;;3.08;;
37655;SDS011;23498;50.958;3.124;2023-02-03T00:32:31;7.47;;;2.22;;
37655;SDS011;23498;50.958;3.124;2023-02-03T00:34:57;11.63;;;2.70;;
37655;SDS011;23498;50.958;3.124;2023-02-03T00:37:23;10.40;;;2.33;;
37655;SDS011;23498;50.958;3.124;2023-02-03T00:39:50;8.63;;;2.15;;
37655;SDS011;23498;50.958;3.124;2023-02-03T00:42:15;10.98;;;2.50;;
37655;SDS011;23498;50.958;3.124;2023-02-03T00:44:41;6.25;;;1.83;;
37655;SDS011;23498;50.958;3.124;2023-02-03T00:47:08;9.88;;;2.10;;
37655;SDS011;23498;50.958;3.124;2023-02-03T00:49:34;4.50;;;1.77;;
37655;SDS011;23498;50.958;3.124;2023-02-03T00:52:00;10.55;;;2.22;;
37655;SDS011;23498;50.958;3.124;2023-02-03T00:54:26;9.85;;;2.30;;
37655;SDS011;23498;50.958;3.124;2023-02-03T00:56:52;7.72;;;2.00;;
37655;SDS011;23498;50.958;3.124;2023-02-03T00:59:18;8.05;;;1.85;;
37655;SDS011;23498;50.958;3.124;2023-02-03T01:01:44;8.32;;;2.22;;
37655;SDS011;23498;50.958;3.124;2023-02-03T01:04:10;7.03;;;1.98;;
37655;SDS011;23498;50.958;3.124;2023-02-03T01:06:36;9.63;;;2.10;;
37655;SDS011;23498;50.958;3.124;2023-02-03T01:09:02;9.02;;;2.05;;
37655;SDS011;23498;50.958;3.124;2023-02-03T01:11:28;7.05;;;1.80;;
37655;SDS011;23498;50.958;3.124;2023-02-03T01:13:55;11.55;;;1.70;;
37655;SDS011;23498;50.958;3.124;2023-02-03T01:16:23;6.82;;;2.17;;
37655;SDS011;23498;50.958;3.124;2023-02-03T01:18:49;8.43;;;1.80;;
37655;SDS011;23498;50.958;3.124;2023-02-03T01:21:17;5.00;;;1.80;;
37655;SDS011;23498;50.958;3.124;2023-02-03T01:23:43;6.47;;;2.05;;
37655;SDS011;23498;50.958;3.124;2023-02-03T01:26:11;11.00;;;2.30;;
37655;SDS011;23498;50.958;3.124;2023-02-03T01:28:37;9.32;;;2.78;;
37655;SDS011;23498;50.958;3.124;2023-02-03T01:31:07;10.27;;;2.45;;
37655;SDS011;23498;50.958;3.124;2023-02-03T01:33:33;10.02;;;2.20;;
37655;SDS011;23498;50.958;3.124;2023-02-03T01:36:00;15.35;;;2.60;;
37655;SDS011;23498;50.958;3.124;2023-02-03T01:38:26;8.10;;;2.00;;
37655;SDS011;23498;50.958;3.124;2023-02-03T01:40:52;8.02;;;2.33;;
37655;SDS011;23498;50.958;3.124;2023-02-03T01:43:28;10.70;;;1.90;;
37655;SDS011;23498;50.958;3.124;2023-02-03T01:45:55;7.13;;;2.10;;
37655;SDS011;23498;50.958;3.124;2023-02-03T01:48:21;9.82;;;2.58;;
37655;SDS011;23498;50.958;3.124;2023-02-03T01:50:47;9.65;;;2.30;;
37655;SDS011;23498;50.958;3.124;2023-02-03T01:53:13;9.40;;;2.58;;
37655;SDS011;23498;50.958;3.124;2023-02-03T01:55:41;8.55;;;1.77;;
37655;SDS011;23498;50.958;3.124;2023-02-03T01:58:10;6.90;;;1.65;;
37655;SDS011;23498;50.958;3.124;2023-02-03T02:00:38;8.40;;;1.60;;
37655;SDS011;23498;50.958;3.124;2023-02-03T02:03:04;6.70;;;1.60;;
37655;SDS011;23498;50.958;3.124;2023-02-03T02:05:34;7.20;;;1.67;;
37655;SDS011;23498;50.958;3.124;2023-02-03T02:08:01;9.82;;;1.90;;
37655;SDS011;23498;50.958;3.124;2023-02-03T02:10:29;8.13;;;1.92;;
37655;SDS011;23498;50.958;3.124;2023-02-03T02:12:55;11.63;;;1.85;;
37655;SDS011;23498;50.958;3.124;2023-02-03T02:15:22;6.43;;;1.58;;
37655;SDS011;23498;50.958;3.124;2023-02-03T02:17:55;9.27;;;1.70;;
37655;SDS011;23498;50.958;3.124;2023-02-03T02:20:28;9.00;;;1.63;;
37655;SDS011;23498;50.958;3.124;2023-02-03T02:28:15;6.63;;;1.38;;
37655;SDS011;23498;50.958;3.124;2023-02-03T02:35:54;6.75;;;1.35;;
37655;SDS011;23498;50.958;3.124;2023-02-03T02:46:17;6.63;;;1.50;;
37655;SDS011;23498;50.958;3.124;2023-02-03T02:48:55;7.07;;;1.35;;
37655;SDS011;23498;50.958;3.124;2023-02-03T02:51:22;7.88;;;1.60;;
37655;SDS011;23498;50.958;3.124;2023-02-03T02:53:51;6.80;;;1.30;;
37655;SDS011;23498;50.958;3.124;2023-02-03T02:56:19;4.30;;;1.30;;
37655;SDS011;23498;50.958;3.124;2023-02-03T02:58:45;7.60;;;1.40;;
37655;SDS011;23498;50.958;3.124;2023-02-03T03:01:13;6.68;;;1.50;;
37655;SDS011;23498;50.958;3.124;2023-02-03T03:03:40;7.13;;;1.48;;
37655;SDS011;23498;50.958;3.124;2023-02-03T03:06:22;6.38;;;1.73;;
37655;SDS011;23498;50.958;3.124;2023-02-03T03:09:03;4.53;;;1.27;;
37655;SDS011;23498;50.958;3.124;2023-02-03T03:11:31;8.57;;;1.45;;
37655;SDS011;23498;50.958;3.124;2023-02-03T03:13:58;4.82;;;1.42;;
37655;SDS011;23498;50.958;3.124;2023-02-03T03:16:26;6.53;;;1.50;;
37655;SDS011;23498;50.958;3.124;2023-02-03T03:18:57;5.38;;;1.23;;
37655;SDS011;23498;50.958;3.124;2023-02-03T03:23:50;5.63;;;1.40;;
37655;SDS011;23498;50.958;3.124;2023-02-03T03:26:20;3.83;;;1.42;;
37655;SDS011;23498;50.958;3.124;2023-02-03T03:28:53;4.55;;;1.33;;
37655;SDS011;23498;50.958;3.124;2023-02-03T03:31:22;6.57;;;1.20;;
37655;SDS011;23498;50.958;3.124;2023-02-03T03:33:48;4.00;;;1.20;;
37655;SDS011;23498;50.958;3.124;2023-02-03T03:38:45;6.53;;;1.25;;
37655;SDS011;23498;50.958;3.124;2023-02-03T03:43:49;4.88;;;1.85;;
37655;SDS011;23498;50.958;3.124;2023-02-03T03:46:21;7.22;;;1.48;;
37655;SDS011;23498;50.958;3.124;2023-02-03T03:48:58;9.80;;;1.60;;
37655;SDS011;23498;50.958;3.124;2023-02-03T03:51:29;7.00;;;1.83;;
37655;SDS011;23498;50.958;3.124;2023-02-03T03:53:57;9.10;;;1.70;;
37655;SDS011;23498;50.958;3.124;2023-02-03T03:56:35;6.75;;;1.75;;
37655;SDS011;23498;50.958;3.124;2023-02-03T03:59:01;4.15;;;1.38;;
37655;SDS011;23498;50.958;3.124;2023-02-03T04:01:29;6.65;;;1.70;;
37655;SDS011;23498;50.958;3.124;2023-02-03T04:03:56;6.57;;;1.88;;
37655;SDS011;23498;50.958;3.124;2023-02-03T04:06:23;11.40;;;2.13;;
37655;SDS011;23498;50.958;3.124;2023-02-03T04:08:49;9.02;;;2.05;;
37655;SDS011;23498;50.958;3.124;2023-02-03T04:11:15;6.43;;;1.88;;
37655;SDS011;23498;50.958;3.124;2023-02-03T04:14:01;9.63;;;1.73;;
37655;SDS011;23498;50.958;3.124;2023-02-03T04:16:27;9.18;;;1.95;;
37655;SDS011;23498;50.958;3.124;2023-02-03T04:18:53;5.95;;;1.58;;
37655;SDS011;23498;50.958;3.124;2023-02-03T04:21:19;5.55;;;1.40;;
37655;SDS011;23498;50.958;3.124;2023-02-03T04:23:45;5.38;;;1.75;;
37655;SDS011;23498;50.958;3.124;2023-02-03T04:26:12;8.30;;;1.42;;
37655;SDS011;23498;50.958;3.124;2023-02-03T04:28:38;9.80;;;2.80;;
37655;SDS011;23498;50.958;3.124;2023-02-03T04:31:04;6.55;;;1.70;;
37655;SDS011;23498;50.958;3.124;2023-02-03T04:33:30;5.43;;;1.52;;
37655;SDS011;23498;50.958;3.124;2023-02-03T04:35:56;7.57;;;1.65;;
37655;SDS011;23498;50.958;3.124;2023-02-03T04:38:22;5.22;;;1.20;;
37655;SDS011;23498;50.958;3.124;2023-02-03T04:40:48;4.80;;;1.40;;
37655;SDS011;23498;50.958;3.124;2023-02-03T04:43:15;8.45;;;1.88;;
37655;SDS011;23498;50.958;3.124;2023-02-03T04:45:41;6.20;;;1.23;;
37655;SDS011;23498;50.958;3.124;2023-02-03T04:48:07;4.25;;;1.13;;
37655;SDS011;23498;50.958;3.124;2023-02-03T04:50:33;6.05;;;1.33;;
37655;SDS011;23498;50.958;3.124;2023-02-03T04:52:59;5.80;;;1.35;;
37655;SDS011;23498;50.958;3.124;2023-02-03T04:55:26;10.40;;;1.83;;
37655;SDS011;23498;50.958;3.124;2023-02-03T04:57:55;4.22;;;1.23;;
37655;SDS011;23498;50.958;3.124;2023-02-03T05:00:22;5.57;;;1.33;;
37655;SDS011;23498;50.958;3.124;2023-02-03T05:02:48;5.55;;;1.30;;
37655;SDS011;23498;50.958;3.124;2023-02-03T05:05:14;4.90;;;1.00;;
37655;SDS011;23498;50.958;3.124;2023-02-03T05:07:40;5.45;;;1.45;;
37655;SDS011;23498;50.958;3.124;2023-02-03T05:10:06;5.55;;;1.35;;
37655;SDS011;23498;50.958;3.124;2023-02-03T05:12:32;3.60;;;1.25;;
37655;SDS011;23498;50.958;3.124;2023-02-03T05:14:58;4.50;;;1.58;;
37655;SDS011;23498;50.958;3.124;2023-02-03T05:17:24;6.30;;;1.58;;
37655;SDS011;23498;50.958;3.124;2023-02-03T05:19:50;5.00;;;1.35;;
37655;SDS011;23498;50.958;3.124;2023-02-03T05:22:16;4.50;;;1.38;;
37655;SDS011;23498;50.958;3.124;2023-02-03T05:24:42;7.60;;;1.75;;
37655;SDS011;23498;50.958;3.124;2023-02-03T05:27:08;7.78;;;1.52;;
37655;SDS011;23498;50.958;3.124;2023-02-03T05:29:35;7.13;;;1.50;;
37655;SDS011;23498;50.958;3.124;2023-02-03T05:32:01;4.55;;;1.20;;
37655;SDS011;23498;50.958;3.124;2023-02-03T05:34:27;5.22;;;1.30;;
37655;SDS011;23498;50.958;3.124;2023-02-03T05:36:53;7.82;;;1.85;;
37655;SDS011;23498;50.958;3.124;2023-02-03T05:39:19;6.53;;;1.77;;
37655;SDS011;23498;50.958;3.124;2023-02-03T05:41:45;5.30;;;1.45;;
37655;SDS011;23498;50.958;3.124;2023-02-03T05:44:17;6.15;;;1.80;;
37655;SDS011;23498;50.958;3.124;2023-02-03T05:46:43;6.93;;;1.70;;
37655;SDS011;23498;50.958;3.124;2023-02-03T05:49:09;6.68;;;1.75;;
37655;SDS011;23498;50.958;3.124;2023-02-03T05:51:35;6.60;;;1.77;;
37655;SDS011;23498;50.958;3.124;2023-02-03T05:54:01;6.82;;;1.73;;
37655;SDS011;23498;50.958;3.124;2023-02-03T05:56:27;7.63;;;1.60;;
37655;SDS011;23498;50.958;3.124;2023-02-03T05:58:53;3.92;;;1.60;;
37655;SDS011;23498;50.958;3.124;2023-02-03T06:01:19;8.10;;;1.52;;
37655;SDS011;23498;50.958;3.124;2023-02-03T06:03:45;6.53;;;1.60;;
37655;SDS011;23498;50.958;3.124;2023-02-03T06:06:11;5.25;;;1.33;;
37655;SDS011;23498;50.958;3.124;2023-02-03T06:08:37;6.40;;;1.90;;
37655;SDS011;23498;50.958;3.124;2023-02-03T06:11:03;8.25;;;1.65;;
37655;SDS011;23498;50.958;3.124;2023-02-03T06:13:29;6.10;;;1.80;;
37655;SDS011;23498;50.958;3.124;2023-02-03T06:15:55;4.15;;;1.30;;
37655;SDS011;23498;50.958;3.124;2023-02-03T06:18:22;7.70;;;2.15;;
37655;SDS011;23498;50.958;3.124;2023-02-03T06:20:48;6.43;;;1.95;;
37655;SDS011;23498;50.958;3.124;2023-02-03T06:23:14;9.10;;;2.00;;
37655;SDS011;23498;50.958;3.124;2023-02-03T06:25:41;6.47;;;2.13;;
37655;SDS011;23498;50.958;3.124;2023-02-03T06:28:07;10.75;;;1.88;;
37655;SDS011;23498;50.958;3.124;2023-02-03T06:30:33;7.20;;;1.80;;
37655;SDS011;23498;50.958;3.124;2023-02-03T06:32:59;14.88;;;2.00;;
37655;SDS011;23498;50.958;3.124;2023-02-03T06:35:25;4.93;;;1.55;;
37655;SDS011;23498;50.958;3.124;2023-02-03T06:37:51;8.00;;;1.55;;
37655;SDS011;23498;50.958;3.124;2023-02-03T06:40:17;4.00;;;1.60;;
37655;SDS011;23498;50.958;3.124;2023-02-03T06:42:44;4.15;;;1.40;;
37655;SDS011;23498;50.958;3.124;2023-02-03T06:45:11;3.55;;;1.08;;
37655;SDS011;23498;50.958;3.124;2023-02-03T06:47:43;8.95;;;1.50;;
37655;SDS011;23498;50.958;3.124;2023-02-03T06:50:14;10.52;;;1.80;;
37655;SDS011;23498;50.958;3.124;2023-02-03T06:52:39;4.53;;;1.40;;
37655;SDS011;23498;50.958;3.124;2023-02-03T06:55:05;6.75;;;1.60;;
37655;SDS011;23498;50.958;3.124;2023-02-03T06:57:32;5.28;;;1.50;;
37655;SDS011;23498;50.958;3.124;2023-02-03T06:59:58;6.38;;;1.45;;
37655;SDS011;23498;50.958;3.124;2023-02-03T07:02:24;3.72;;;1.15;;
37655;SDS011;23498;50.958;3.124;2023-02-03T07:04:50;6.15;;;1.70;;
37655;SDS011;23498;50.958;3.124;2023-02-03T07:07:16;4.88;;;1.38;;
37655;SDS011;23498;50.958;3.124;2023-02-03T07:09:42;3.65;;;1.00;;
37655;SDS011;23498;50.958;3.124;2023-02-03T07:12:08;5.63;;;1.50;;
37655;SDS011;23498;50.958;3.124;2023-02-03T07:14:34;6.15;;;1.92;;
37655;SDS011;23498;50.958;3.124;2023-02-03T07:17:01;5.20;;;1.30;;
37655;SDS011;23498;50.958;3.124;2023-02-03T07:19:27;7.38;;;1.40;;
37655;SDS011;23498;50.958;3.124;2023-02-03T07:21:53;3.70;;;1.08;;
37655;SDS011;23498;50.958;3.124;2023-02-03T07:24:19;6.07;;;1.50;;
37655;SDS011;23498;50.958;3.124;2023-02-03T07:26:45;6.93;;;1.50;;
37655;SDS011;23498;50.958;3.124;2023-02-03T07:29:11;8.68;;;2.10;;
37655;SDS011;23498;50.958;3.124;2023-02-03T07:31:37;5.45;;;1.70;;
37655;SDS011;23498;50.958;3.124;2023-02-03T07:34:03;6.13;;;1.60;;
37655;SDS011;23498;50.958;3.124;2023-02-03T07:36:30;6.28;;;1.50;;
37655;SDS011;23498;50.958;3.124;2023-02-03T07:38:56;5.68;;;1.35;;
37655;SDS011;23498;50.958;3.124;2023-02-03T07:41:22;6.95;;;1.58;;
37655;SDS011;23498;50.958;3.124;2023-02-03T07:43:48;5.20;;;1.42;;
37655;SDS011;23498;50.958;3.124;2023-02-03T07:46:14;5.38;;;1.30;;
37655;SDS011;23498;50.958;3.124;2023-02-03T07:48:40;7.72;;;1.83;;
37655;SDS011;23498;50.958;3.124;2023-02-03T07:51:06;8.07;;;1.70;;
37655;SDS011;23498;50.958;3.124;2023-02-03T07:53:32;6.75;;;1.63;;
37655;SDS011;23498;50.958;3.124;2023-02-03T07:56:02;8.32;;;1.65;;
37655;SDS011;23498;50.958;3.124;2023-02-03T07:58:29;8.05;;;1.90;;
37655;SDS011;23498;50.958;3.124;2023-02-03T08:00:55;6.32;;;1.80;;
37655;SDS011;23498;50.958;3.124;2023-02-03T08:03:21;6.63;;;1.67;;
37655;SDS011;23498;50.958;3.124;2023-02-03T08:05:47;3.97;;;1.58;;
37655;SDS011;23498;50.958;3.124;2023-02-03T08:08:14;4.35;;;1.30;;
37655;SDS011;23498;50.958;3.124;2023-02-03T08:10:40;6.78;;;1.70;;
37655;SDS011;23498;50.958;3.124;2023-02-03T08:13:06;7.05;;;1.58;;
37655;SDS011;23498;50.958;3.124;2023-02-03T08:15:32;6.07;;;1.77;;
37655;SDS011;23498;50.958;3.124;2023-02-03T08:17:58;7.10;;;2.00;;
37655;SDS011;23498;50.958;3.124;2023-02-03T08:20:24;7.90;;;1.90;;
37655;SDS011;23498;50.958;3.124;2023-02-03T08:22:50;6.32;;;1.67;;
37655;SDS011;23498;50.958;3.124;2023-02-03T08:25:17;5.55;;;1.75;;
37655;SDS011;23498;50.958;3.124;2023-02-03T08:27:43;7.00;;;1.83;;
37655;SDS011;23498;50.958;3.124;2023-02-03T08:30:13;6.70;;;1.40;;
37655;SDS011;23498;50.958;3.124;2023-02-03T08:32:39;6.32;;;1.70;;
37655;SDS011;23498;50.958;3.124;2023-02-03T08:35:05;4.90;;;1.33;;
37655;SDS011;23498;50.958;3.124;2023-02-03T08:37:32;5.07;;;1.30;;
37655;SDS011;23498;50.958;3.124;2023-02-03T08:39:58;5.50;;;1.60;;
37655;SDS011;23498;50.958;3.124;2023-02-03T08:42:24;5.13;;;1.48;;
37655;SDS011;23498;50.958;3.124;2023-02-03T08:44:50;4.20;;;1.50;;
37655;SDS011;23498;50.958;3.124;2023-02-03T08:47:16;5.95;;;1.70;;
37655;SDS011;23498;50.958;3.124;2023-02-03T08:49:42;8.07;;;1.55;;
37655;SDS011;23498;50.958;3.124;2023-02-03T08:52:10;5.63;;;1.40;;
37655;SDS011;23498;50.958;3.124;2023-02-03T08:54:36;7.28;;;1.42;;
37655;SDS011;23498;50.958;3.124;2023-02-03T08:57:02;6.57;;;1.88;;
37655;SDS011;23498;50.958;3.124;2023-02-03T08:59:28;7.47;;;1.40;;
37655;SDS011;23498;50.958;3.124;2023-02-03T09:01:55;5.00;;;1.52;;
37655;SDS011;23498;50.958;3.124;2023-02-03T09:04:24;5.25;;;1.30;;
37655;SDS011;23498;50.958;3.124;2023-02-03T09:06:50;7.35;;;1.70;;
37655;SDS011;23498;50.958;3.124;2023-02-03T09:09:18;6.63;;;1.55;;
37655;SDS011;23498;50.958;3.124;2023-02-03T09:11:44;7.10;;;1.70;;
37655;SDS011;23498;50.958;3.124;2023-02-03T09:14:11;5.03;;;1.40;;
37655;SDS011;23498;50.958;3.124;2023-02-03T09:16:37;10.48;;;2.05;;
37655;SDS011;23498;50.958;3.124;2023-02-03T09:19:03;3.65;;;1.20;;
37655;SDS011;23498;50.958;3.124;2023-02-03T09:21:29;3.90;;;1.50;;
37655;SDS011;23498;50.958;3.124;2023-02-03T09:23:54;8.63;;;1.65;;
37655;SDS011;23498;50.958;3.124;2023-02-03T09:26:20;5.40;;;1.60;;
37655;SDS011;23498;50.958;3.124;2023-02-03T09:28:46;6.03;;;1.58;;
37655;SDS011;23498;50.958;3.124;2023-02-03T09:31:13;5.93;;;1.98;;
37655;SDS011;23498;50.958;3.124;2023-02-03T09:33:41;7.60;;;1.63;;
37655;SDS011;23498;50.958;3.124;2023-02-03T09:36:08;3.15;;;1.23;;
37655;SDS011;23498;50.958;3.124;2023-02-03T09:38:35;4.97;;;1.85;;
37655;SDS011;23498;50.958;3.124;2023-02-03T09:46:33;6.10;;;2.05;;
37655;SDS011;23498;50.958;3.124;2023-02-03T09:48:56;5.70;;;1.58;;
37655;SDS011;23498;50.958;3.124;2023-02-03T09:51:33;7.20;;;1.67;;
37655;SDS011;23498;50.958;3.124;2023-02-03T09:54:06;3.88;;;1.45;;
37655;SDS011;23498;50.958;3.124;2023-02-03T09:56:38;5.47;;;1.35;;
37655;SDS011;23498;50.958;3.124;2023-02-03T09:59:04;7.88;;;1.40;;
37655;SDS011;23498;50.958;3.124;2023-02-03T10:01:37;5.53;;;1.52;;
37655;SDS011;23498;50.958;3.124;2023-02-03T10:06:46;6.57;;;1.80;;
37655;SDS011;23498;50.958;3.124;2023-02-03T10:11:54;5.47;;;1.48;;
37655;SDS011;23498;50.958;3.124;2023-02-03T10:19:48;4.85;;;1.40;;
37655;SDS011;23498;50.958;3.124;2023-02-03T10:22:17;4.22;;;1.45;;
37655;SDS011;23498;50.958;3.124;2023-02-03T10:24:55;8.32;;;1.70;;
37655;SDS011;23498;50.958;3.124;2023-02-03T10:27:22;6.60;;;1.42;;
37655;SDS011;23498;50.958;3.124;2023-02-03T10:29:57;4.28;;;1.13;;
37655;SDS011;23498;50.958;3.124;2023-02-03T10:32:25;8.90;;;1.48;;
37655;SDS011;23498;50.958;3.124;2023-02-03T10:34:51;4.43;;;1.50;;
37655;SDS011;23498;50.958;3.124;2023-02-03T10:39:52;5.72;;;1.38;;
37655;SDS011;23498;50.958;3.124;2023-02-03T10:42:19;6.72;;;1.92;;
37655;SDS011;23498;50.958;3.124;2023-02-03T10:50:19;6.95;;;1.75;;
37655;SDS011;23498;50.958;3.124;2023-02-03T10:52:45;3.97;;;1.55;;
37655;SDS011;23498;50.958;3.124;2023-02-03T10:57:47;6.38;;;1.80;;
37655;SDS011;23498;50.958;3.124;2023-02-03T11:02:42;7.68;;;1.48;;
37655;SDS011;23498;50.958;3.124;2023-02-03T11:07:41;4.30;;;1.30;;
37655;SDS011;23498;50.958;3.124;2023-02-03T11:15:41;3.92;;;1.33;;
37655;SDS011;23498;50.958;3.124;2023-02-03T11:18:24;8.85;;;2.30;;
37655;SDS011;23498;50.958;3.124;2023-02-03T11:20:50;3.47;;;1.88;;
37655;SDS011;23498;50.958;3.124;2023-02-03T11:23:17;5.65;;;2.00;;
37655;SDS011;23498;50.958;3.124;2023-02-03T11:25:45;9.80;;;2.35;;
37655;SDS011;23498;50.958;3.124;2023-02-03T11:28:11;6.32;;;1.80;;
37655;SDS011;23498;50.958;3.124;2023-02-03T11:30:38;5.63;;;1.77;;
37655;SDS011;23498;50.958;3.124;2023-02-03T11:35:38;5.63;;;1.85;;
37655;SDS011;23498;50.958;3.124;2023-02-03T11:38:08;5.10;;;1.58;;
37655;SDS011;23498;50.958;3.124;2023-02-03T11:40:57;8.82;;;2.00;;
37655;SDS011;23498;50.958;3.124;2023-02-03T11:43:23;6.60;;;1.90;;
37655;SDS011;23498;50.958;3.124;2023-02-03T11:45:51;4.47;;;1.27;;
37655;SDS011;23498;50.958;3.124;2023-02-03T11:50:59;9.27;;;2.13;;
37655;SDS011;23498;50.958;3.124;2023-02-03T11:53:31;6.47;;;1.90;;
37655;SDS011;23498;50.958;3.124;2023-02-03T12:03:42;4.82;;;1.67;;
37655;SDS011;23498;50.958;3.124;2023-02-03T12:09:02;5.20;;;1.90;;
37655;SDS011;23498;50.958;3.124;2023-02-03T12:11:39;6.38;;;1.90;;
37655;SDS011;23498;50.958;3.124;2023-02-03T12:21:50;6.50;;;2.05;;
37655;SDS011;23498;50.958;3.124;2023-02-03T12:29:55;4.47;;;1.70;;
37655;SDS011;23498;50.958;3.124;2023-02-03T12:37:33;3.45;;;1.83;;
37655;SDS011;23498;50.958;3.124;2023-02-03T12:40:13;4.32;;;2.08;;
37655;SDS011;23498;50.958;3.124;2023-02-03T12:43:04;5.70;;;2.00;;
37655;SDS011;23498;50.958;3.124;2023-02-03T12:45:31;8.75;;;2.53;;
37655;SDS011;23498;50.958;3.124;2023-02-03T12:48:04;5.13;;;1.83;;
37655;SDS011;23498;50.958;3.124;2023-02-03T12:50:31;6.13;;;1.95;;
37655;SDS011;23498;50.958;3.124;2023-02-03T12:53:17;3.78;;;1.45;;
37655;SDS011;23498;50.958;3.124;2023-02-03T12:55:46;5.80;;;2.13;;
37655;SDS011;23498;50.958;3.124;2023-02-03T12:58:29;7.53;;;2.35;;
37655;SDS011;23498;50.958;3.124;2023-02-03T13:01:02;6.87;;;1.97;;
37655;SDS011;23498;50.958;3.124;2023-02-03T13:03:40;8.38;;;2.10;;
37655;SDS011;23498;50.958;3.124;2023-02-03T13:06:19;5.28;;;2.00;;
37655;SDS011;23498;50.958;3.124;2023-02-03T13:14:21;5.75;;;1.98;;
37655;SDS011;23498;50.958;3.124;2023-02-03T13:16:50;7.85;;;2.45;;
37655;SDS011;23498;50.958;3.124;2023-02-03T13:19:17;11.07;;;2.63;;
37655;SDS011;23498;50.958;3.124;2023-02-03T13:21:47;11.73;;;3.55;;
37655;SDS011;23498;50.958;3.124;2023-02-03T13:24:13;5.13;;;2.28;;
37655;SDS011;23498;50.958;3.124;2023-02-03T13:26:52;7.15;;;3.28;;
37655;SDS011;23498;50.958;3.124;2023-02-03T13:34:40;7.95;;;3.80;;
37655;SDS011;23498;50.958;3.124;2023-02-03T13:39:43;8.13;;;2.60;;
37655;SDS011;23498;50.958;3.124;2023-02-03T13:44:41;9.07;;;3.08;;
37655;SDS011;23498;50.958;3.124;2023-02-03T13:47:15;7.35;;;3.78;;
37655;SDS011;23498;50.958;3.124;2023-02-03T13:49:42;7.68;;;2.53;;
37655;SDS011;23498;50.958;3.124;2023-02-03T13:52:27;7.43;;;2.80;;
37655;SDS011;23498;50.958;3.124;2023-02-03T13:54:53;5.88;;;2.20;;
37655;SDS011;23498;50.958;3.124;2023-02-03T13:57:21;7.72;;;3.10;;
37655;SDS011;23498;50.958;3.124;2023-02-03T13:59:47;5.50;;;2.28;;
37655;SDS011;23498;50.958;3.124;2023-02-03T14:09:44;5.97;;;2.63;;
37655;SDS011;23498;50.958;3.124;2023-02-03T14:14:40;6.88;;;2.42;;
37655;SDS011;23498;50.958;3.124;2023-02-03T14:17:10;6.00;;;2.45;;
37655;SDS011;23498;50.958;3.124;2023-02-03T14:19:53;9.63;;;2.90;;
37655;SDS011;23498;50.958;3.124;2023-02-03T14:22:19;7.97;;;2.95;;
37655;SDS011;23498;50.958;3.124;2023-02-03T14:24:46;8.75;;;2.90;;
37655;SDS011;23498;50.958;3.124;2023-02-03T14:27:16;10.57;;;2.80;;
37655;SDS011;23498;50.958;3.124;2023-02-03T14:29:43;6.53;;;2.40;;
37655;SDS011;23498;50.958;3.124;2023-02-03T14:32:10;8.35;;;3.15;;
37655;SDS011;23498;50.958;3.124;2023-02-03T14:34:36;15.00;;;3.03;;
37655;SDS011;23498;50.958;3.124;2023-02-03T14:42:30;9.15;;;2.60;;
37655;SDS011;23498;50.958;3.124;2023-02-03T14:50:12;8.63;;;2.55;;
37655;SDS011;23498;50.958;3.124;2023-02-03T14:55:24;7.53;;;2.63;;
37655;SDS011;23498;50.958;3.124;2023-02-03T14:57:58;8.95;;;2.70;;
37655;SDS011;23498;50.958;3.124;2023-02-03T15:00:28;7.05;;;2.55;;
37655;SDS011;23498;50.958;3.124;2023-02-03T15:10:57;7.25;;;2.72;;
37655;SDS011;23498;50.958;3.124;2023-02-03T15:13:24;7.03;;;3.10;;
37655;SDS011;23498;50.958;3.124;2023-02-03T15:15:51;9.90;;;2.90;;
37655;SDS011;23498;50.958;3.124;2023-02-03T15:18:19;6.10;;;3.03;;
37655;SDS011;23498;50.958;3.124;2023-02-03T15:20:46;9.95;;;3.00;;
37655;SDS011;23498;50.958;3.124;2023-02-03T15:23:17;9.23;;;3.00;;
37655;SDS011;23498;50.958;3.124;2023-02-03T15:25:44;9.02;;;3.45;;
37655;SDS011;23498;50.958;3.124;2023-02-03T15:28:11;8.95;;;3.30;;
37655;SDS011;23498;50.958;3.124;2023-02-03T15:30:37;8.75;;;2.97;;
37655;SDS011;23498;50.958;3.124;2023-02-03T15:33:14;9.13;;;3.03;;
37655;SDS011;23498;50.958;3.124;2023-02-03T15:35:42;6.13;;;2.80;;
37655;SDS011;23498;50.958;3.124;2023-02-03T15:38:12;9.13;;;3.30;;
37655;SDS011;23498;50.958;3.124;2023-02-03T15:40:57;9.30;;;3.70;;
37655;SDS011;23498;50.958;3.124;2023-02-03T15:48:48;8.70;;;3.45;;
37655;SDS011;23498;50.958;3.124;2023-02-03T15:51:21;9.45;;;3.33;;
37655;SDS011;23498;50.958;3.124;2023-02-03T15:53:53;5.38;;;3.08;;
37655;SDS011;23498;50.958;3.124;2023-02-03T15:58:54;9.98;;;3.80;;
37655;SDS011;23498;50.958;3.124;2023-02-03T16:01:22;9.98;;;3.63;;
37655;SDS011;23498;50.958;3.124;2023-02-03T16:03:51;8.63;;;4.00;;
37655;SDS011;23498;50.958;3.124;2023-02-03T16:08:51;10.70;;;3.92;;
37655;SDS011;23498;50.958;3.124;2023-02-03T16:11:31;12.23;;;4.20;;
37655;SDS011;23498;50.958;3.124;2023-02-03T16:13:58;9.02;;;3.88;;
37655;SDS011;23498;50.958;3.124;2023-02-03T16:16:29;11.57;;;4.63;;
37655;SDS011;23498;50.958;3.124;2023-02-03T16:18:56;11.23;;;4.22;;
37655;SDS011;23498;50.958;3.124;2023-02-03T16:21:28;9.20;;;4.35;;
37655;SDS011;23498;50.958;3.124;2023-02-03T16:23:55;9.45;;;4.47;;
37655;SDS011;23498;50.958;3.124;2023-02-03T16:26:22;9.63;;;4.53;;
37655;SDS011;23498;50.958;3.124;2023-02-03T16:29:03;10.07;;;4.28;;
37655;SDS011;23498;50.958;3.124;2023-02-03T16:31:52;10.95;;;4.63;;
37655;SDS011;23498;50.958;3.124;2023-02-03T16:34:37;14.25;;;4.60;;
37655;SDS011;23498;50.958;3.124;2023-02-03T16:37:23;11.35;;;4.43;;
37655;SDS011;23498;50.958;3.124;2023-02-03T16:40:08;9.68;;;4.72;;
37655;SDS011;23498;50.958;3.124;2023-02-03T16:42:53;12.25;;;4.82;;
37655;SDS011;23498;50.958;3.124;2023-02-03T16:45:37;12.70;;;5.43;;
37655;SDS011;23498;50.958;3.124;2023-02-03T16:48:22;12.05;;;5.53;;
37655;SDS011;23498;50.958;3.124;2023-02-03T16:51:11;11.88;;;5.55;;
37655;SDS011;23498;50.958;3.124;2023-02-03T16:53:39;8.15;;;4.78;;
37655;SDS011;23498;50.958;3.124;2023-02-03T16:56:06;9.52;;;5.63;;
37655;SDS011;23498;50.958;3.124;2023-02-03T16:58:32;15.02;;;5.70;;
37655;SDS011;23498;50.958;3.124;2023-02-03T17:00:59;11.23;;;5.55;;
37655;SDS011;23498;50.958;3.124;2023-02-03T17:03:26;11.63;;;5.88;;
37655;SDS011;23498;50.958;3.124;2023-02-03T17:05:53;13.27;;;5.85;;
37655;SDS011;23498;50.958;3.124;2023-02-03T17:08:20;13.50;;;5.65;;
37655;SDS011;23498;50.958;3.124;2023-02-03T17:10:46;9.38;;;5.30;;
37655;SDS011;23498;50.958;3.124;2023-02-03T17:13:13;11.13;;;6.20;;
37655;SDS011;23498;50.958;3.124;2023-02-03T17:15:40;13.73;;;6.40;;
37655;SDS011;23498;50.958;3.124;2023-02-03T17:18:07;16.30;;;6.50;;
37655;SDS011;23498;50.958;3.124;2023-02-03T17:20:33;10.23;;;6.00;;
37655;SDS011;23498;50.958;3.124;2023-02-03T17:22:59;14.40;;;6.63;;
37655;SDS011;23498;50.958;3.124;2023-02-03T17:25:25;12.50;;;6.15;;
37655;SDS011;23498;50.958;3.124;2023-02-03T17:27:51;12.85;;;6.40;;